Time;durP1;ratioP1;P1;durP2;ratioP2;P2;SDS_P1;SDS_P2;PMS_P1;PMS_P2;Temp;Humidity;BMP_temperature;BMP_pressure;BME280_temperature;BME280_humidity;BME280_pressure;Samples;Min_cycle;Max_cycle;Signal;HPM_P1;HPM_P2
2022/04/07 00:01:09;;;;;;;26.60;15.57;;;;;;;;;;5052419;28;21782;-70
2022/04/07 00:03:34;;;;;;;43.20;22.05;;;;;;;;;;5056989;28;20040;-69
2022/04/07 00:06:00;;;;;;;54.92;29.05;;;;;;;;;;5057090;28;20044;-68
2022/04/07 00:11:29;;;;;;;59.03;33.60;;;;;;;;;;5058639;28;20047;-71
2022/04/07 00:13:55;;;;;;;47.53;27.77;;;;;;;;;;5057083;28;20025;-67
2022/04/07 00:16:20;;;;;;;23.35;13.27;;;;;;;;;;5050437;28;20363;-71
2022/04/07 00:18:46;;;;;;;37.70;20.83;;;;;;;;;;5058023;28;20023;-73
2022/04/07 00:21:12;;;;;;;38.17;21.13;;;;;;;;;;5058671;28;20363;-78
2022/04/07 00:23:39;;;;;;;24.92;12.90;;;;;;;;;;5057642;28;20035;-75
2022/04/07 00:26:05;;;;;;;27.15;14.23;;;;;;;;;;5058897;28;20044;-69
2022/04/07 00:28:30;;;;;;;33.15;15.90;;;;;;;;;;5048967;28;20033;-75
2022/04/07 00:30:57;;;;;;;30.35;15.48;;;;;;;;;;5055812;28;20075;-70
2022/04/07 00:33:22;;;;;;;36.03;17.70;;;;;;;;;;5054609;28;20036;-69
2022/04/07 00:35:48;;;;;;;32.42;17.45;;;;;;;;;;5046629;28;20032;-68
2022/04/07 00:38:13;;;;;;;31.85;17.75;;;;;;;;;;5058349;28;20112;-73
2022/04/07 00:40:39;;;;;;;34.83;17.45;;;;;;;;;;5059520;28;20032;-68
2022/04/07 00:43:04;;;;;;;30.60;16.30;;;;;;;;;;5057359;28;20040;-68
2022/04/07 00:45:30;;;;;;;29.88;16.35;;;;;;;;;;5057699;28;20071;-67
2022/04/07 00:47:58;;;;;;;28.95;15.90;;;;;;;;;;5058314;28;20332;-70
2022/04/07 00:50:23;;;;;;;25.98;13.85;;;;;;;;;;5055455;28;20032;-66
2022/04/07 00:52:55;;;;;;;24.83;15.00;;;;;;;;;;5058218;28;20478;-69
2022/04/07 00:55:21;;;;;;;22.95;13.07;;;;;;;;;;5051219;28;20475;-66
2022/04/07 00:57:47;;;;;;;21.13;13.18;;;;;;;;;;5046959;28;20028;-69
2022/04/07 01:00:13;;;;;;;24.40;14.95;;;;;;;;;;5049235;28;20021;-77
2022/04/07 01:02:38;;;;;;;27.50;15.20;;;;;;;;;;5051719;28;20024;-75
2022/04/07 01:05:04;;;;;;;26.00;15.65;;;;;;;;;;5048940;28;20029;-69
2022/04/07 01:07:32;;;;;;;24.17;14.48;;;;;;;;;;5055883;28;20340;-69
2022/04/07 01:09:57;;;;;;;24.45;15.23;;;;;;;;;;5039109;28;20127;-73
2022/04/07 01:12:23;;;;;;;32.08;20.75;;;;;;;;;;5049694;28;20123;-69
2022/04/07 01:15:07;;;;;;;37.65;22.23;;;;;;;;;;5041937;28;20031;-75
2022/04/07 01:17:34;;;;;;;29.13;18.15;;;;;;;;;;5041943;28;20037;-70
2022/04/07 01:19:59;;;;;;;21.50;13.38;;;;;;;;;;5055561;28;20024;-68
2022/04/07 01:22:25;;;;;;;20.30;12.10;;;;;;;;;;5055916;28;20043;-68
2022/04/07 01:24:50;;;;;;;22.20;12.52;;;;;;;;;;5056575;28;20043;-76
2022/04/07 01:27:16;;;;;;;23.27;13.80;;;;;;;;;;5049339;28;20439;-70
2022/04/07 01:29:42;;;;;;;23.02;13.32;;;;;;;;;;5048203;28;20032;-67
2022/04/07 01:32:10;;;;;;;19.13;12.07;;;;;;;;;;5058675;28;20383;-66
2022/04/07 01:34:36;;;;;;;14.05;9.43;;;;;;;;;;5052926;28;20028;-70
2022/04/07 01:37:02;;;;;;;16.80;10.05;;;;;;;;;;5055565;28;20029;-71
2022/04/07 01:39:27;;;;;;;16.70;10.10;;;;;;;;;;5046011;28;20036;-73
2022/04/07 01:41:54;;;;;;;53.13;29.90;;;;;;;;;;5053623;28;20464;-67
2022/04/07 01:44:21;;;;;;;34.58;19.13;;;;;;;;;;5047465;28;20052;-68
2022/04/07 01:46:47;;;;;;;30.15;17.27;;;;;;;;;;5052534;28;20344;-76
2022/04/07 01:49:13;;;;;;;22.08;14.60;;;;;;;;;;5047694;28;20156;-70
2022/04/07 01:51:40;;;;;;;21.95;13.20;;;;;;;;;;5056780;28;20382;-68
2022/04/07 01:54:11;;;;;;;22.38;15.52;;;;;;;;;;5057229;28;22308;-75
2022/04/07 01:56:37;;;;;;;23.60;15.32;;;;;;;;;;5055207;28;20063;-69
2022/04/07 01:59:03;;;;;;;23.17;15.68;;;;;;;;;;5056666;28;20033;-72
2022/04/07 02:01:28;;;;;;;23.55;15.07;;;;;;;;;;5056232;28;20341;-69
2022/04/07 02:03:54;;;;;;;21.17;13.27;;;;;;;;;;5053914;28;20114;-69
2022/04/07 02:06:19;;;;;;;17.42;11.38;;;;;;;;;;5057083;28;20035;-71
2022/04/07 02:08:45;;;;;;;17.33;11.57;;;;;;;;;;5056591;28;20033;-67
2022/04/07 02:11:11;;;;;;;17.23;10.95;;;;;;;;;;5046091;28;20062;-68
2022/04/07 02:13:38;;;;;;;15.43;9.60;;;;;;;;;;5054550;28;20021;-67
2022/04/07 02:16:04;;;;;;;13.32;8.77;;;;;;;;;;5056123;28;20033;-67
2022/04/07 02:18:29;;;;;;;14.85;8.63;;;;;;;;;;5044972;28;20032;-66
2022/04/07 02:20:55;;;;;;;13.80;9.32;;;;;;;;;;5048461;28;20024;-68
2022/04/07 02:23:20;;;;;;;14.88;8.25;;;;;;;;;;5042501;28;20048;-69
2022/04/07 02:25:45;;;;;;;13.77;8.30;;;;;;;;;;5043444;28;20031;-67
2022/04/07 02:28:11;;;;;;;13.00;8.57;;;;;;;;;;5044003;28;20101;-78
2022/04/07 02:30:37;;;;;;;13.02;8.00;;;;;;;;;;5043274;28;20020;-76
2022/04/07 02:33:02;;;;;;;11.93;7.18;;;;;;;;;;5057934;28;20052;-70
2022/04/07 02:35:28;;;;;;;8.13;5.57;;;;;;;;;;5057899;28;20106;-67
2022/04/07 02:37:53;;;;;;;7.55;5.10;;;;;;;;;;5055681;28;20036;-68
2022/04/07 02:40:18;;;;;;;8.07;5.65;;;;;;;;;;5056564;28;20036;-66
2022/04/07 02:42:44;;;;;;;9.23;5.07;;;;;;;;;;5057252;28;20416;-66
2022/04/07 02:45:09;;;;;;;6.68;5.03;;;;;;;;;;5052807;28;20095;-67
2022/04/07 02:47:36;;;;;;;6.93;3.88;;;;;;;;;;5055298;28;20057;-68
2022/04/07 02:50:01;;;;;;;10.50;4.55;;;;;;;;;;5042266;28;20407;-72
2022/04/07 02:52:27;;;;;;;14.52;7.32;;;;;;;;;;5055153;28;20062;-75
2022/04/07 02:54:53;;;;;;;20.02;12.57;;;;;;;;;;5055600;28;20371;-67
2022/04/07 02:57:22;;;;;;;11.43;7.10;;;;;;;;;;5056882;28;20090;-67
2022/04/07 02:59:47;;;;;;;10.00;6.70;;;;;;;;;;5054246;28;20094;-69
2022/04/07 03:02:13;;;;;;;15.70;9.13;;;;;;;;;;5055091;28;20033;-67
2022/04/07 03:04:38;;;;;;;26.17;18.00;;;;;;;;;;5056809;28;20111;-67
2022/04/07 03:07:04;;;;;;;18.33;10.95;;;;;;;;;;5057366;28;20028;-74
2022/04/07 03:09:29;;;;;;;23.73;12.48;;;;;;;;;;5052392;28;20352;-67
2022/04/07 03:11:54;;;;;;;18.67;10.80;;;;;;;;;;5046894;28;20123;-68
2022/04/07 03:14:22;;;;;;;18.08;10.88;;;;;;;;;;5056033;28;20021;-67
2022/04/07 03:16:48;;;;;;;17.25;10.05;;;;;;;;;;5054484;28;20024;-70
2022/04/07 03:19:16;;;;;;;19.02;10.95;;;;;;;;;;5055313;28;20059;-67
2022/04/07 03:21:42;;;;;;;17.85;10.93;;;;;;;;;;5054235;28;20036;-75
2022/04/07 03:24:08;;;;;;;18.40;11.60;;;;;;;;;;5036366;28;20410;-68
2022/04/07 03:26:33;;;;;;;16.60;9.98;;;;;;;;;;5044925;28;20188;-65
2022/04/07 03:28:58;;;;;;;17.65;10.15;;;;;;;;;;5054828;28;20035;-75
2022/04/07 03:31:24;;;;;;;16.63;11.60;;;;;;;;;;5054465;28;20344;-67
2022/04/07 03:33:49;;;;;;;19.25;11.05;;;;;;;;;;5049314;28;20024;-70
2022/04/07 03:36:14;;;;;;;17.25;10.68;;;;;;;;;;5061011;28;20419;-69
2022/04/07 03:38:40;;;;;;;15.43;10.60;;;;;;;;;;5057025;28;20031;-75
2022/04/07 03:41:08;;;;;;;17.70;10.98;;;;;;;;;;5058434;28;20115;-69
2022/04/07 03:43:34;;;;;;;21.65;14.35;;;;;;;;;;5058403;28;20029;-66
2022/04/07 03:45:59;;;;;;;14.57;10.55;;;;;;;;;;5035816;28;20437;-66
2022/04/07 03:48:25;;;;;;;18.77;11.98;;;;;;;;;;5055251;28;20051;-68
2022/04/07 03:50:52;;;;;;;21.95;14.00;;;;;;;;;;5055875;28;20031;-70
2022/04/07 03:53:17;;;;;;;24.88;14.45;;;;;;;;;;5057315;28;20120;-71
2022/04/07 03:55:42;;;;;;;23.33;13.43;;;;;;;;;;5059012;28;20363;-71
2022/04/07 03:58:08;;;;;;;21.63;12.02;;;;;;;;;;5060213;28;20037;-68
2022/04/07 04:00:33;;;;;;;21.90;13.38;;;;;;;;;;5055866;28;20028;-65
2022/04/07 04:02:59;;;;;;;26.50;15.63;;;;;;;;;;5052137;28;20030;-68
2022/04/07 04:05:24;;;;;;;29.50;19.77;;;;;;;;;;5044872;28;20027;-67
2022/04/07 04:07:49;;;;;;;23.13;15.02;;;;;;;;;;5045177;28;20048;-68
2022/04/07 04:10:15;;;;;;;13.13;8.88;;;;;;;;;;5045813;28;20028;-67
2022/04/07 04:12:40;;;;;;;16.15;8.65;;;;;;;;;;5044221;28;20870;-70
2022/04/07 04:15:06;;;;;;;29.05;18.75;;;;;;;;;;5045778;28;20025;-71
2022/04/07 04:17:32;;;;;;;31.05;19.60;;;;;;;;;;5045225;28;20075;-69
2022/04/07 04:19:57;;;;;;;27.52;20.52;;;;;;;;;;5044415;28;20111;-68
2022/04/07 04:22:23;;;;;;;20.10;11.93;;;;;;;;;;5045312;28;20021;-70
2022/04/07 04:24:48;;;;;;;19.92;12.90;;;;;;;;;;5045370;28;20104;-67
2022/04/07 04:27:14;;;;;;;21.90;14.00;;;;;;;;;;5047967;28;20041;-66
2022/04/07 04:29:43;;;;;;;17.67;10.27;;;;;;;;;;5045553;28;20028;-71
2022/04/07 04:32:09;;;;;;;13.07;8.20;;;;;;;;;;5049315;28;20012;-66
2022/04/07 04:34:34;;;;;;;10.50;6.32;;;;;;;;;;5054264;28;20024;-71
2022/04/07 04:37:00;;;;;;;9.48;5.28;;;;;;;;;;5057903;28;20039;-69
2022/04/07 04:39:25;;;;;;;12.57;8.63;;;;;;;;;;5051228;28;20040;-74
2022/04/07 04:41:50;;;;;;;15.00;9.23;;;;;;;;;;5051631;28;20037;-72
2022/04/07 04:44:16;;;;;;;13.10;6.53;;;;;;;;;;5055865;28;20049;-74
2022/04/07 04:46:42;;;;;;;7.13;4.85;;;;;;;;;;5056102;28;20103;-70
2022/04/07 04:49:07;;;;;;;9.43;4.57;;;;;;;;;;5056177;28;20459;-72
2022/04/07 04:51:32;;;;;;;13.70;5.65;;;;;;;;;;5057454;28;20041;-70
2022/04/07 04:53:58;;;;;;;8.13;5.63;;;;;;;;;;5055916;28;20032;-70
2022/04/07 04:56:23;;;;;;;10.00;5.82;;;;;;;;;;5057886;28;20431;-71
2022/04/07 04:58:49;;;;;;;17.80;11.32;;;;;;;;;;5059664;28;20020;-70
2022/04/07 05:01:14;;;;;;;15.15;9.43;;;;;;;;;;5057431;28;20075;-72
2022/04/07 05:03:40;;;;;;;9.82;6.40;;;;;;;;;;5057548;28;20074;-71
2022/04/07 05:06:05;;;;;;;7.80;5.55;;;;;;;;;;5057276;28;20082;-73
2022/04/07 05:08:30;;;;;;;10.90;6.18;;;;;;;;;;5057542;28;20420;-72
2022/04/07 05:10:56;;;;;;;10.82;5.38;;;;;;;;;;5057962;28;20028;-74
2022/04/07 05:13:22;;;;;;;13.70;7.20;;;;;;;;;;5044283;28;20091;-72
2022/04/07 05:15:47;;;;;;;20.88;11.55;;;;;;;;;;5046247;28;20175;-71
2022/04/07 05:18:13;;;;;;;15.73;9.52;;;;;;;;;;5051574;28;20029;-70
2022/04/07 05:20:38;;;;;;;14.68;9.40;;;;;;;;;;5044009;28;20508;-77
2022/04/07 05:23:04;;;;;;;17.35;10.05;;;;;;;;;;5053287;28;20043;-73
2022/04/07 05:25:29;;;;;;;21.40;13.68;;;;;;;;;;5057008;28;20340;-75
2022/04/07 05:27:54;;;;;;;18.20;10.00;;;;;;;;;;5048249;28;20322;-72
2022/04/07 05:30:20;;;;;;;17.33;10.98;;;;;;;;;;5042269;28;20100;-70
2022/04/07 05:32:46;;;;;;;11.95;8.32;;;;;;;;;;5042901;28;20040;-71
2022/04/07 05:35:12;;;;;;;15.32;7.50;;;;;;;;;;5043182;28;20347;-69
2022/04/07 05:37:38;;;;;;;9.13;6.40;;;;;;;;;;5046227;28;20024;-69
2022/04/07 05:40:04;;;;;;;43.97;24.98;;;;;;;;;;5055636;28;20028;-75
2022/04/07 05:42:29;;;;;;;20.42;15.85;;;;;;;;;;5050609;28;20024;-73
2022/04/07 05:44:55;;;;;;;28.67;22.48;;;;;;;;;;5050365;28;21149;-70
2022/04/07 05:47:20;;;;;;;28.85;16.13;;;;;;;;;;5053375;28;20388;-75
2022/04/07 05:49:46;;;;;;;25.27;13.88;;;;;;;;;;5055120;28;20039;-71
2022/04/07 05:52:11;;;;;;;21.30;11.80;;;;;;;;;;5055139;28;20058;-70
2022/04/07 05:54:37;;;;;;;18.65;11.68;;;;;;;;;;5058174;28;20158;-71
2022/04/07 05:57:02;;;;;;;17.35;11.02;;;;;;;;;;5057580;28;20104;-76
2022/04/07 05:59:28;;;;;;;23.90;13.77;;;;;;;;;;5057233;28;20020;-72
2022/04/07 06:01:53;;;;;;;40.88;16.42;;;;;;;;;;5056616;28;20705;-74
2022/04/07 06:04:18;;;;;;;22.77;12.77;;;;;;;;;;5056894;28;20033;-71
2022/04/07 06:06:44;;;;;;;25.70;13.15;;;;;;;;;;5043684;28;20040;-73
2022/04/07 06:09:09;;;;;;;21.63;12.63;;;;;;;;;;5056118;28;20683;-71
2022/04/07 06:11:35;;;;;;;17.80;11.68;;;;;;;;;;5055817;28;20031;-71
2022/04/07 06:14:01;;;;;;;20.63;11.13;;;;;;;;;;5057710;28;20063;-71
2022/04/07 06:16:27;;;;;;;30.63;17.88;;;;;;;;;;5057134;28;20108;-71
2022/04/07 06:18:52;;;;;;;26.38;15.95;;;;;;;;;;5055141;28;20119;-77
2022/04/07 06:21:18;;;;;;;24.38;16.25;;;;;;;;;;5057063;28;20032;-72
2022/04/07 06:23:43;;;;;;;15.57;10.20;;;;;;;;;;5057805;28;20525;-74
2022/04/07 06:26:09;;;;;;;16.98;8.15;;;;;;;;;;5057718;28;20028;-75
2022/04/07 06:28:34;;;;;;;13.65;8.88;;;;;;;;;;5055113;28;20032;-72
2022/04/07 06:30:59;;;;;;;24.58;17.88;;;;;;;;;;5057952;28;20025;-72
2022/04/07 06:33:25;;;;;;;13.65;10.63;;;;;;;;;;5056274;28;20024;-72
2022/04/07 06:35:51;;;;;;;14.95;9.88;;;;;;;;;;5056317;28;20021;-76
2022/04/07 06:38:16;;;;;;;12.65;9.00;;;;;;;;;;5054552;28;20431;-72
2022/04/07 06:40:42;;;;;;;18.55;11.70;;;;;;;;;;5038855;28;20045;-77
2022/04/07 06:43:07;;;;;;;20.77;13.38;;;;;;;;;;5053255;28;20042;-73
2022/04/07 06:45:33;;;;;;;29.40;15.07;;;;;;;;;;5057775;28;20496;-73
2022/04/07 06:47:58;;;;;;;19.90;10.82;;;;;;;;;;5057666;28;20099;-71
2022/04/07 06:50:25;;;;;;;20.02;11.27;;;;;;;;;;5055397;28;20432;-72
2022/04/07 06:52:51;;;;;;;24.70;14.43;;;;;;;;;;5055138;28;20025;-74
2022/04/07 06:55:16;;;;;;;23.20;15.25;;;;;;;;;;5056791;28;20013;-74
2022/04/07 06:57:48;;;;;;;22.05;15.13;;;;;;;;;;5057058;28;20371;-72
2022/04/07 07:00:14;;;;;;;17.50;13.60;;;;;;;;;;5056581;28;20028;-76
2022/04/07 07:02:39;;;;;;;22.38;15.40;;;;;;;;;;5056491;28;20020;-71
2022/04/07 07:05:05;;;;;;;31.48;19.55;;;;;;;;;;5054460;28;20036;-72
2022/04/07 07:07:30;;;;;;;24.20;15.40;;;;;;;;;;5057273;28;20455;-71
2022/04/07 07:09:56;;;;;;;23.17;13.82;;;;;;;;;;5058437;28;20033;-72
2022/04/07 07:12:21;;;;;;;20.85;13.40;;;;;;;;;;5062362;28;20337;-78
2022/04/07 07:14:47;;;;;;;20.75;14.00;;;;;;;;;;5059600;28;20039;-73
2022/04/07 07:17:13;;;;;;;20.20;14.45;;;;;;;;;;5062078;28;20028;-72
2022/04/07 07:19:38;;;;;;;31.15;23.60;;;;;;;;;;5059842;28;20029;-72
2022/04/07 07:22:03;;;;;;;155.48;79.00;;;;;;;;;;5061372;28;20029;-74
2022/04/07 07:24:29;;;;;;;128.88;67.85;;;;;;;;;;5058488;28;20033;-72
2022/04/07 07:26:54;;;;;;;230.07;117.60;;;;;;;;;;5057577;28;20059;-72
2022/04/07 07:29:20;;;;;;;205.13;113.78;;;;;;;;;;5059723;28;20021;-75
2022/04/07 07:31:45;;;;;;;83.88;49.38;;;;;;;;;;5059522;28;20111;-76
2022/04/07 07:34:10;;;;;;;418.83;197.73;;;;;;;;;;5060703;28;20416;-75
2022/04/07 07:36:36;;;;;;;774.42;422.88;;;;;;;;;;5058685;28;20032;-78
2022/04/07 07:39:01;;;;;;;553.40;288.13;;;;;;;;;;5059271;28;20098;-77
2022/04/07 07:41:27;;;;;;;430.42;207.10;;;;;;;;;;5059742;28;20033;-76
2022/04/07 07:43:52;;;;;;;246.90;127.15;;;;;;;;;;5059945;28;20080;-76
2022/04/07 07:46:17;;;;;;;185.98;94.25;;;;;;;;;;5058494;28;20044;-75
2022/04/07 07:48:43;;;;;;;201.23;103.50;;;;;;;;;;5059984;28;20085;-76
2022/04/07 07:51:08;;;;;;;201.73;108.72;;;;;;;;;;5058722;28;20442;-76
2022/04/07 07:53:34;;;;;;;126.88;69.88;;;;;;;;;;5056374;28;20159;-76
2022/04/07 07:55:59;;;;;;;72.88;45.80;;;;;;;;;;5059060;28;20046;-78
2022/04/07 07:58:25;;;;;;;36.40;23.55;;;;;;;;;;5058227;28;20063;-75
2022/04/07 08:00:50;;;;;;;35.47;25.33;;;;;;;;;;5060492;28;20052;-77
2022/04/07 08:03:16;;;;;;;28.05;21.35;;;;;;;;;;5057720;28;20108;-78
2022/04/07 08:05:41;;;;;;;18.75;14.45;;;;;;;;;;5058166;28;20020;-75
2022/04/07 08:08:07;;;;;;;23.00;14.95;;;;;;;;;;5058309;28;20131;-77
2022/04/07 08:10:32;;;;;;;20.20;13.82;;;;;;;;;;5059791;28;20504;-75
2022/04/07 08:12:58;;;;;;;19.85;12.85;;;;;;;;;;5058201;28;20099;-75
2022/04/07 08:15:24;;;;;;;21.65;15.35;;;;;;;;;;5060335;28;20055;-75
2022/04/07 08:17:50;;;;;;;29.65;22.13;;;;;;;;;;5059153;28;20042;-77
2022/04/07 08:20:16;;;;;;;22.45;18.25;;;;;;;;;;5057957;28;20364;-76
2022/04/07 08:22:41;;;;;;;29.25;21.88;;;;;;;;;;5058516;28;20081;-76
2022/04/07 08:25:07;;;;;;;24.40;19.20;;;;;;;;;;5058952;28;20028;-76
2022/04/07 08:27:33;;;;;;;46.22;34.35;;;;;;;;;;5059533;28;20465;-75
2022/04/07 08:29:58;;;;;;;48.65;34.47;;;;;;;;;;5057558;28;20016;-77
2022/04/07 08:32:23;;;;;;;43.42;31.05;;;;;;;;;;5057840;28;20020;-76
2022/04/07 08:34:49;;;;;;;51.20;38.33;;;;;;;;;;5058144;28;20035;-77
2022/04/07 08:37:14;;;;;;;65.78;47.15;;;;;;;;;;5059807;28;20463;-76
2022/04/07 08:39:40;;;;;;;77.05;51.08;;;;;;;;;;5057628;28;20035;-76
2022/04/07 08:42:06;;;;;;;72.70;47.90;;;;;;;;;;5057945;28;20123;-76
2022/04/07 08:44:32;;;;;;;30.63;22.27;;;;;;;;;;5058974;28;20040;-76
2022/04/07 08:46:58;;;;;;;23.15;18.65;;;;;;;;;;5057186;28;20040;-77
2022/04/07 08:49:24;;;;;;;18.25;14.32;;;;;;;;;;5057368;28;20444;-77
2022/04/07 08:51:50;;;;;;;20.35;14.80;;;;;;;;;;5060981;28;20063;-76
2022/04/07 08:54:15;;;;;;;26.15;17.92;;;;;;;;;;5056905;28;20064;-76
2022/04/07 08:56:41;;;;;;;32.55;25.63;;;;;;;;;;5058899;28;20039;-75
2022/04/07 08:59:06;;;;;;;32.65;25.95;;;;;;;;;;5058116;28;20032;-76
2022/04/07 09:01:32;;;;;;;47.25;35.65;;;;;;;;;;5057823;28;20024;-75
2022/04/07 09:03:57;;;;;;;45.75;33.83;;;;;;;;;;5058936;28;20020;-75
2022/04/07 09:06:23;;;;;;;42.50;31.13;;;;;;;;;;5057697;28;20431;-75
2022/04/07 09:08:49;;;;;;;31.17;22.42;;;;;;;;;;5057894;28;20017;-76
2022/04/07 09:11:16;;;;;;;17.85;13.43;;;;;;;;;;5056966;28;20204;-75
2022/04/07 09:13:42;;;;;;;22.33;15.38;;;;;;;;;;5057595;28;20020;-74
2022/04/07 09:16:12;;;;;;;149.98;79.25;;;;;;;;;;5058129;28;20388;-77
2022/04/07 09:18:37;;;;;;;174.60;96.32;;;;;;;;;;5055523;28;20486;-73
2022/04/07 09:21:04;;;;;;;116.03;67.95;;;;;;;;;;5057964;28;20064;-77
2022/04/07 09:23:38;;;;;;;76.57;51.65;;;;;;;;;;5058469;28;20443;-76
2022/04/07 09:26:04;;;;;;;77.75;53.72;;;;;;;;;;5056021;28;20042;-74
2022/04/07 09:28:30;;;;;;;66.05;51.33;;;;;;;;;;5058687;28;20450;-73
2022/04/07 09:30:59;;;;;;;71.82;50.72;;;;;;;;;;5057848;28;20025;-73
2022/04/07 09:33:26;;;;;;;78.60;54.80;;;;;;;;;;5058183;28;20055;-75
2022/04/07 09:35:58;;;;;;;79.45;55.97;;;;;;;;;;5056455;28;20024;-77
2022/04/07 09:38:24;;;;;;;88.45;55.28;;;;;;;;;;5058155;28;20032;-74
2022/04/07 09:40:49;;;;;;;71.78;50.67;;;;;;;;;;5054809;28;20086;-73
2022/04/07 09:43:14;;;;;;;63.00;46.78;;;;;;;;;;5057532;28;20041;-74
2022/04/07 09:45:44;;;;;;;116.70;76.80;;;;;;;;;;5057645;28;20057;-76
2022/04/07 09:48:09;;;;;;;107.70;78.05;;;;;;;;;;5054963;28;20507;-76
2022/04/07 09:50:35;;;;;;;90.18;61.20;;;;;;;;;;5057680;28;20112;-75
2022/04/07 09:53:04;;;;;;;62.42;43.47;;;;;;;;;;5056574;28;20097;-75
2022/04/07 09:55:43;;;;;;;95.93;65.28;;;;;;;;;;5058259;28;20020;-76
2022/04/07 09:58:10;;;;;;;121.72;78.38;;;;;;;;;;5057953;28;20466;-75
2022/04/07 10:00:36;;;;;;;149.93;100.63;;;;;;;;;;5055301;28;20085;-76
2022/04/07 10:03:04;;;;;;;194.75;133.48;;;;;;;;;;5056539;28;20028;-75
2022/04/07 10:05:30;;;;;;;200.67;136.53;;;;;;;;;;5057099;28;20029;-77
2022/04/07 10:07:59;;;;;;;168.82;123.15;;;;;;;;;;5058386;28;20021;-74
2022/04/07 10:10:24;;;;;;;191.38;123.05;;;;;;;;;;5054024;28;20032;-78
2022/04/07 10:12:50;;;;;;;138.13;94.25;;;;;;;;;;5054487;28;20455;-73
2022/04/07 10:15:16;;;;;;;105.60;73.05;;;;;;;;;;5057160;28;20024;-75
2022/04/07 10:17:42;;;;;;;87.78;58.33;;;;;;;;;;5056134;28;20166;-75
2022/04/07 10:20:08;;;;;;;93.05;67.28;;;;;;;;;;5055592;28;20123;-74
2022/04/07 10:22:34;;;;;;;94.72;68.90;;;;;;;;;;5057523;28;20456;-75
2022/04/07 10:25:03;;;;;;;96.50;68.10;;;;;;;;;;5056782;28;20028;-74
2022/04/07 10:27:33;;;;;;;93.40;70.20;;;;;;;;;;5055669;28;20067;-72
2022/04/07 10:30:04;;;;;;;91.25;69.75;;;;;;;;;;5056648;28;20031;-76
2022/04/07 10:32:46;;;;;;;77.38;57.72;;;;;;;;;;5057773;28;20024;-75
2022/04/07 10:35:38;;;;;;;64.60;43.28;;;;;;;;;;5056377;28;20024;-75
2022/04/07 10:38:06;;;;;;;54.55;36.30;;;;;;;;;;5051675;28;20082;-74
2022/04/07 10:40:49;;;;;;;44.80;27.05;;;;;;;;;;5055173;28;20107;-75
2022/04/07 10:43:14;;;;;;;31.50;18.75;;;;;;;;;;5057729;28;20027;-74
2022/04/07 10:45:44;;;;;;;22.52;13.95;;;;;;;;;;5059774;28;20052;-74
2022/04/07 10:48:31;;;;;;;34.80;22.52;;;;;;;;;;5061707;28;20147;-75
2022/04/07 10:51:02;;;;;;;29.50;19.77;;;;;;;;;;5059990;28;20033;-73
2022/04/07 10:53:30;;;;;;;23.25;15.70;;;;;;;;;;5060745;28;20032;-72
2022/04/07 10:56:05;;;;;;;19.20;13.15;;;;;;;;;;5043199;28;20085;-75
2022/04/07 10:58:39;;;;;;;21.23;13.98;;;;;;;;;;5058769;28;20407;-74
2022/04/07 11:01:05;;;;;;;26.98;17.35;;;;;;;;;;5060313;28;20028;-74
2022/04/07 11:03:30;;;;;;;33.97;18.50;;;;;;;;;;5060034;28;20032;-74
2022/04/07 11:05:59;;;;;;;30.77;16.25;;;;;;;;;;5061738;28;20052;-75
2022/04/07 11:08:24;;;;;;;23.58;11.60;;;;;;;;;;5058748;28;20458;-75
2022/04/07 11:10:52;;;;;;;18.88;6.65;;;;;;;;;;5056805;28;20111;-75
2022/04/07 11:13:19;;;;;;;24.50;12.35;;;;;;;;;;5044962;28;20052;-75
2022/04/07 11:15:58;;;;;;;27.58;17.20;;;;;;;;;;5028851;28;20419;-77
2022/04/07 11:18:24;;;;;;;;;;;;;;;;;;5046614;28;20514;-75
2022/04/07 11:21:08;;;;;;;42.23;28.33;;;;;;;;;;5046535;28;20447;-76
2022/04/07 11:23:41;;;;;;;34.72;25.75;;;;;;;;;;5047620;28;20063;-76
2022/04/07 11:26:18;;;;;;;61.83;53.45;;;;;;;;;;5044731;28;20403;-77
2022/04/07 11:29:02;;;;;;;48.78;32.45;;;;;;;;;;5046988;28;20076;-75
2022/04/07 11:31:39;;;;;;;25.00;13.93;;;;;;;;;;5045434;28;20040;-79
2022/04/07 11:34:25;;;;;;;21.88;11.93;;;;;;;;;;5045209;28;20419;-74
2022/04/07 11:36:51;;;;;;;22.70;11.73;;;;;;;;;;5045504;28;20165;-74
2022/04/07 11:39:16;;;;;;;16.60;8.93;;;;;;;;;;5049711;28;20528;-75
2022/04/07 11:41:43;;;;;;;18.70;8.40;;;;;;;;;;5057026;28;20032;-74
2022/04/07 11:44:09;;;;;;;16.05;7.75;;;;;;;;;;5060201;28;20129;-76
2022/04/07 11:46:34;;;;;;;20.95;8.20;;;;;;;;;;5049018;28;20036;-77
2022/04/07 11:49:00;;;;;;;19.17;9.10;;;;;;;;;;5041838;28;20466;-71
2022/04/07 11:51:26;;;;;;;26.33;11.10;;;;;;;;;;5056302;28;20046;-72
2022/04/07 11:53:53;;;;;;;19.73;9.57;;;;;;;;;;5046425;28;20025;-72
2022/04/07 11:56:25;;;;;;;19.13;6.50;;;;;;;;;;5044783;28;20123;-75
2022/04/07 11:59:02;;;;;;;16.40;5.13;;;;;;;;;;5053302;28;20032;-78
2022/04/07 12:01:28;;;;;;;15.02;5.63;;;;;;;;;;5039912;28;20431;-72
2022/04/07 12:03:57;;;;;;;15.35;5.57;;;;;;;;;;5041261;28;20032;-75
2022/04/07 12:06:23;;;;;;;10.13;4.47;;;;;;;;;;5046908;28;20769;-74
2022/04/07 12:08:50;;;;;;;14.73;6.00;;;;;;;;;;5051671;28;20144;-76
2022/04/07 12:11:16;;;;;;;17.27;7.25;;;;;;;;;;5058139;28;20036;-73
2022/04/07 12:13:41;;;;;;;22.60;7.20;;;;;;;;;;5057737;28;20025;-74
2022/04/07 12:16:09;;;;;;;21.52;7.82;;;;;;;;;;5047244;28;21656;-75
2022/04/07 12:18:35;;;;;;;17.17;5.80;;;;;;;;;;5055601;28;20036;-75
2022/04/07 12:21:01;;;;;;;19.92;6.30;;;;;;;;;;5058024;28;20465;-75
2022/04/07 12:23:27;;;;;;;16.90;6.13;;;;;;;;;;5059448;28;20658;-74
2022/04/07 12:25:57;;;;;;;13.95;5.95;;;;;;;;;;5054953;28;20035;-75
2022/04/07 12:28:22;;;;;;;19.10;7.57;;;;;;;;;;5048776;28;20475;-72
2022/04/07 12:30:50;;;;;;;17.15;6.95;;;;;;;;;;5055839;28;20060;-71
2022/04/07 12:33:34;;;;;;;13.32;7.40;;;;;;;;;;5047105;28;20104;-75
2022/04/07 12:36:00;;;;;;;19.67;7.65;;;;;;;;;;5048068;28;20024;-75
2022/04/07 12:38:25;;;;;;;17.73;6.45;;;;;;;;;;5057193;28;20158;-73
2022/04/07 12:40:50;;;;;;;21.38;8.05;;;;;;;;;;5043543;28;20029;-74
2022/04/07 12:43:16;;;;;;;25.08;12.25;;;;;;;;;;5048052;28;20034;-77
2022/04/07 12:45:57;;;;;;;14.07;6.60;;;;;;;;;;5043156;28;20060;-73
2022/04/07 12:48:23;;;;;;;39.40;15.57;;;;;;;;;;5039692;28;20032;-72
2022/04/07 12:50:48;;;;;;;21.30;8.05;;;;;;;;;;5043403;28;20167;-71
2022/04/07 12:53:30;;;;;;;26.73;8.63;;;;;;;;;;5041247;28;20107;-71
2022/04/07 12:55:56;;;;;;;22.08;7.75;;;;;;;;;;5043682;28;20048;-71
2022/04/07 12:58:27;;;;;;;25.90;9.77;;;;;;;;;;5054053;28;20029;-75
2022/04/07 13:00:59;;;;;;;31.77;11.70;;;;;;;;;;5038159;28;20086;-73
2022/04/07 13:03:28;;;;;;;26.88;14.23;;;;;;;;;;5042663;28;20087;-77
2022/04/07 13:05:54;;;;;;;23.80;12.88;;;;;;;;;;5042776;28;20033;-74
2022/04/07 13:08:19;;;;;;;29.27;12.55;;;;;;;;;;5039709;28;20355;-71
2022/04/07 13:10:45;;;;;;;36.03;19.63;;;;;;;;;;5021788;28;20521;-77
2022/04/07 13:13:10;;;;;;;23.05;13.02;;;;;;;;;;5049658;28;20129;-73
2022/04/07 13:15:36;;;;;;;19.73;10.20;;;;;;;;;;5042633;28;20112;-76
2022/04/07 13:18:02;;;;;;;20.00;8.80;;;;;;;;;;5042342;28;20057;-73
2022/04/07 13:20:28;;;;;;;16.58;7.07;;;;;;;;;;5041154;28;20055;-72
2022/04/07 13:22:54;;;;;;;33.92;15.45;;;;;;;;;;5040711;28;20032;-72
2022/04/07 13:25:19;;;;;;;35.72;16.20;;;;;;;;;;5045105;28;20024;-73
2022/04/07 13:27:45;;;;;;;31.05;16.48;;;;;;;;;;5050414;28;20057;-76
2022/04/07 13:30:10;;;;;;;33.03;15.02;;;;;;;;;;5054467;28;20034;-73
2022/04/07 13:32:36;;;;;;;35.63;20.80;;;;;;;;;;5053329;28;20028;-77
2022/04/07 13:35:01;;;;;;;41.17;19.73;;;;;;;;;;5054096;28;20063;-73
2022/04/07 13:37:26;;;;;;;41.45;20.55;;;;;;;;;;5050068;28;20036;-74
2022/04/07 13:39:52;;;;;;;27.08;12.10;;;;;;;;;;5050119;28;20063;-72
2022/04/07 13:42:18;;;;;;;19.17;8.25;;;;;;;;;;5054746;28;20025;-74
2022/04/07 13:44:43;;;;;;;22.83;8.50;;;;;;;;;;5051856;28;20048;-74
2022/04/07 13:47:09;;;;;;;30.27;13.02;;;;;;;;;;5051882;28;20029;-77
2022/04/07 13:49:34;;;;;;;103.10;65.22;;;;;;;;;;5051035;28;20032;-75
2022/04/07 13:52:02;;;;;;;35.35;18.95;;;;;;;;;;5053302;28;20059;-78
2022/04/07 13:54:28;;;;;;;26.80;13.63;;;;;;;;;;5053301;28;20056;-72
2022/04/07 13:56:53;;;;;;;28.17;12.98;;;;;;;;;;5053984;28;20431;-74
2022/04/07 13:59:19;;;;;;;22.77;11.82;;;;;;;;;;5050678;28;20020;-75
2022/04/07 14:01:44;;;;;;;23.05;9.68;;;;;;;;;;5049517;28;20438;-74
2022/04/07 14:04:10;;;;;;;31.67;12.15;;;;;;;;;;5051451;28;20033;-76
2022/04/07 14:06:35;;;;;;;19.83;8.10;;;;;;;;;;5052566;28;20093;-72
2022/04/07 14:09:01;;;;;;;17.65;5.55;;;;;;;;;;5049637;28;20025;-73
2022/04/07 14:11:26;;;;;;;36.78;15.88;;;;;;;;;;5050735;28;20422;-74
2022/04/07 14:13:52;;;;;;;40.60;18.63;;;;;;;;;;5052381;28;20025;-70
2022/04/07 14:16:18;;;;;;;122.47;78.68;;;;;;;;;;5045152;28;20020;-73
2022/04/07 14:18:43;;;;;;;75.05;49.47;;;;;;;;;;5050651;28;20025;-72